createdAt,value
2023-03-12T00:00:01.025Z,10.20
2023-03-12T00:06:10.495Z,10.40
2023-03-12T00:12:13.055Z,9.35
2023-03-12T00:18:14.924Z,7.20
2023-03-12T00:24:16.939Z,7.90
2023-03-12T00:30:18.836Z,8.35
2023-03-12T00:36:24.874Z,7.78
2023-03-12T00:42:26.689Z,12.25
2023-03-12T00:48:28.583Z,11.63
2023-03-12T00:54:30.675Z,9.88
2023-03-12T01:00:32.755Z,11.55
2023-03-12T01:06:34.846Z,10.27
2023-03-12T01:12:37.085Z,9.85
2023-03-12T01:18:39.412Z,10.35
2023-03-12T01:24:41.330Z,11.20
2023-03-12T01:30:43.226Z,14.27
2023-03-12T01:36:46.291Z,13.40
2023-03-12T01:42:58.763Z,11.52
2023-03-12T01:49:22.057Z,10.07
2023-03-12T01:55:24.443Z,10.50
2023-03-12T02:01:27.489Z,9.32
2023-03-12T02:07:30.196Z,7.25
2023-03-12T02:13:32.263Z,8.70
2023-03-12T02:20:08.063Z,8.45
2023-03-12T02:26:12.416Z,6.83
2023-03-12T02:32:26.390Z,5.18
2023-03-12T02:38:48.216Z,5.57
2023-03-12T02:44:50.628Z,5.68
2023-03-12T02:50:52.846Z,6.90
2023-03-12T02:56:55.501Z,9.38
2023-03-12T03:02:59.257Z,8.45
2023-03-12T03:09:01.959Z,7.10
2023-03-12T03:15:04.929Z,7.20
2023-03-12T03:21:16.300Z,6.82
2023-03-12T03:27:19.218Z,10.27
2023-03-12T03:33:21.615Z,11.63
2023-03-12T03:39:25.133Z,10.40
2023-03-12T03:45:27.203Z,10.18
2023-03-12T03:51:30.547Z,10.02
2023-03-12T03:57:36.834Z,8.85
2023-03-12T04:03:39.047Z,8.25
2023-03-12T04:09:44.727Z,7.57
2023-03-12T04:15:48.768Z,6.22
2023-03-12T04:21:51.149Z,7.28
2023-03-12T04:27:53.032Z,8.82
2023-03-12T04:33:55.095Z,7.43
2023-03-12T04:39:59.167Z,6.60
2023-03-12T04:46:01.269Z,6.30
2023-03-12T04:52:03.226Z,6.18
2023-03-12T04:58:05.350Z,5.68
2023-03-12T05:04:07.716Z,6.95
2023-03-12T05:10:10.237Z,7.10
2023-03-12T05:16:12.995Z,6.53
2023-03-12T05:22:16.274Z,5.85
2023-03-12T05:28:18.361Z,4.63
2023-03-12T05:34:20.530Z,5.05
2023-03-12T05:40:22.478Z,5.18
2023-03-12T05:46:25.916Z,4.80
2023-03-12T05:52:28.265Z,4.60
2023-03-12T05:58:30.915Z,4.25
2023-03-12T06:04:33.256Z,4.35
2023-03-12T06:10:37.965Z,4.07
2023-03-12T06:16:40.424Z,4.40
2023-03-12T06:22:42.700Z,4.22
2023-03-12T06:28:46.468Z,3.65
2023-03-12T06:34:48.353Z,4.00
2023-03-12T06:41:01.860Z,3.55
2023-03-12T06:47:03.956Z,3.70
2023-03-12T06:53:05.744Z,3.33
2023-03-12T06:59:07.948Z,3.08
2023-03-12T07:05:10.177Z,3.17
2023-03-12T07:11:12.606Z,2.85
2023-03-12T07:17:14.419Z,2.40
2023-03-12T07:23:16.635Z,2.47
2023-03-12T07:29:18.439Z,2.85
2023-03-12T07:35:20.426Z,2.40
2023-03-12T07:41:22.307Z,2.60
2023-03-12T07:47:24.823Z,2.22
2023-03-12T07:53:26.780Z,2.58
2023-03-12T07:59:28.911Z,2.50
2023-03-12T08:05:30.809Z,2.50
2023-03-12T08:11:34.383Z,2.55
2023-03-12T08:17:36.201Z,2.55
2023-03-12T08:23:38.079Z,2.50
2023-03-12T08:29:40.597Z,2.70
2023-03-12T08:35:42.522Z,2.55
2023-03-12T08:41:44.318Z,2.53
2023-03-12T08:47:46.211Z,2.58
2023-03-12T08:53:48.023Z,2.95
2023-03-12T08:59:49.819Z,2.80
2023-03-12T09:06:01.863Z,3.13
2023-03-12T09:12:03.837Z,3.30
2023-03-12T09:18:05.701Z,3.10
2023-03-12T09:24:07.829Z,2.83
2023-03-12T09:30:15.719Z,3.17
2023-03-12T09:36:17.950Z,2.90
2023-03-12T09:42:30.282Z,2.78
2023-03-12T09:48:35.298Z,2.83
2023-03-12T09:54:52.274Z,3.15
2023-03-12T10:01:00.939Z,3.47
2023-03-12T10:07:11.524Z,3.05
2023-03-12T10:13:40.764Z,2.70
2023-03-12T10:19:59.686Z,3.45
2023-03-12T10:26:23.158Z,2.80
2023-03-12T10:32:36.102Z,2.95
2023-03-12T10:38:37.890Z,2.70
2023-03-12T10:44:40.006Z,2.35
2023-03-12T10:50:41.876Z,2.72
2023-03-12T10:56:51.223Z,2.72
2023-03-12T11:03:05.375Z,2.42
2023-03-12T11:09:17.693Z,2.90
2023-03-12T11:15:21.242Z,2.35
2023-03-12T11:21:23.646Z,3.22
2023-03-12T11:27:36.941Z,2.42
2023-03-12T11:33:38.867Z,3.00
2023-03-12T11:39:43.327Z,3.00
2023-03-12T11:46:17.353Z,3.10
2023-03-12T11:52:46.077Z,3.42
2023-03-12T11:59:09.887Z,3.70
2023-03-12T12:05:26.745Z,3.78
2023-03-12T12:11:45.243Z,3.73
2023-03-12T12:18:04.596Z,4.25
2023-03-12T12:24:32.473Z,4.60
2023-03-12T12:31:04.148Z,4.88
2023-03-12T12:37:30.309Z,5.10
2023-03-12T12:43:47.547Z,5.50
2023-03-12T12:49:54.343Z,5.65
2023-03-12T12:56:02.056Z,6.17
2023-03-12T13:02:05.856Z,6.13
2023-03-12T13:08:11.293Z,7.20
2023-03-12T13:14:19.669Z,7.72
2023-03-12T13:20:24.142Z,9.23
2023-03-12T13:26:42.849Z,7.28
2023-03-12T13:32:47.683Z,7.43
2023-03-12T13:39:06.829Z,8.20
2023-03-12T13:45:23.604Z,8.45
2023-03-12T13:51:26.700Z,9.53
2023-03-12T13:57:46.850Z,10.15
2023-03-12T14:03:53.330Z,9.23
2023-03-12T14:10:13.012Z,8.98
2023-03-12T14:16:36.739Z,8.98
2023-03-12T14:22:41.393Z,8.45
2023-03-12T14:28:44.704Z,9.32
2023-03-12T14:35:08.324Z,8.82
2023-03-12T14:41:27.808Z,8.52
2023-03-12T14:47:30.069Z,8.10
2023-03-12T14:53:37.489Z,7.95
2023-03-12T14:59:39.592Z,9.43
2023-03-12T15:05:48.898Z,9.10
2023-03-12T15:11:54.266Z,9.65
2023-03-12T15:17:56.569Z,9.23
2023-03-12T15:23:58.704Z,9.70
2023-03-12T15:30:01.155Z,9.80
2023-03-12T15:36:15.023Z,9.38
2023-03-12T15:42:19.818Z,10.15
2023-03-12T15:48:24.419Z,9.60
2023-03-12T15:54:29.660Z,9.48
2023-03-12T16:00:40.967Z,10.10
2023-03-12T16:06:44.254Z,9.05
2023-03-12T16:12:47.582Z,9.95
2023-03-12T16:18:49.486Z,9.75
2023-03-12T16:24:51.569Z,9.13
2023-03-12T16:30:53.498Z,10.13
2023-03-12T16:36:56.771Z,10.20
2023-03-12T16:43:02.719Z,9.85
2023-03-12T16:49:04.603Z,9.30
2023-03-12T16:55:06.905Z,9.68
2023-03-12T17:01:17.360Z,10.38
2023-03-12T17:07:19.154Z,10.07
2023-03-12T17:13:29.029Z,10.60
2023-03-12T17:19:30.950Z,9.25
2023-03-12T17:25:35.649Z,10.07
2023-03-12T17:31:37.660Z,9.80
2023-03-12T17:37:39.556Z,9.55
2023-03-12T17:43:41.867Z,9.38
2023-03-12T17:49:43.841Z,9.40
2023-03-12T17:55:47.368Z,9.45
2023-03-12T18:01:49.164Z,10.00
2023-03-12T18:07:51.495Z,9.68
2023-03-12T18:13:53.462Z,9.68
2023-03-12T18:19:55.384Z,9.13
2023-03-12T18:25:57.189Z,9.05
2023-03-12T18:31:58.985Z,9.77
2023-03-12T18:38:01.012Z,10.60
2023-03-12T18:44:02.813Z,10.32
2023-03-12T18:50:08.409Z,11.82
2023-03-12T18:56:10.398Z,11.30
2023-03-12T19:02:12.379Z,12.20
2023-03-12T19:08:14.992Z,12.52
2023-03-12T19:14:17.165Z,13.02
2023-03-12T19:20:19.232Z,14.10
2023-03-12T19:26:21.020Z,13.45
2023-03-12T19:32:25.376Z,14.00
2023-03-12T19:38:30.190Z,14.90
2023-03-12T19:44:35.322Z,14.30
2023-03-12T19:50:37.065Z,13.32
2023-03-12T19:56:38.810Z,14.10
2023-03-12T20:02:41.246Z,14.35
2023-03-12T20:08:44.495Z,13.52
2023-03-12T20:14:46.593Z,14.20
2023-03-12T20:20:48.372Z,13.77
2023-03-12T20:26:50.136Z,13.20
2023-03-12T20:32:51.979Z,12.13
2023-03-12T20:38:53.874Z,11.18
2023-03-12T20:44:55.614Z,10.63
2023-03-12T20:50:57.443Z,9.90
2023-03-12T20:56:59.165Z,10.27
2023-03-12T21:03:00.934Z,9.25
2023-03-12T21:09:03.373Z,9.63
2023-03-12T21:15:07.321Z,8.75
2023-03-12T21:21:09.523Z,8.35
2023-03-12T21:27:12.987Z,7.32
2023-03-12T21:33:14.768Z,7.65
2023-03-12T21:39:17.296Z,7.32
2023-03-12T21:45:22.120Z,8.13
2023-03-12T21:51:26.009Z,6.78
2023-03-12T21:57:28.594Z,7.13
2023-03-12T22:03:30.336Z,6.47
2023-03-12T22:09:32.074Z,7.53
2023-03-12T22:15:33.893Z,6.38
2023-03-12T22:21:35.846Z,5.30
2023-03-12T22:27:37.600Z,6.20
2023-03-12T22:33:39.431Z,5.28
2023-03-12T22:39:43.162Z,6.22
2023-03-12T22:45:44.987Z,6.40
2023-03-12T22:51:46.751Z,5.93
2023-03-12T22:57:48.486Z,5.72
2023-03-12T23:03:51.196Z,5.40
2023-03-12T23:09:52.946Z,5.93
2023-03-12T23:15:54.784Z,5.68
2023-03-12T23:21:56.595Z,6.25
2023-03-12T23:27:58.367Z,5.53
2023-03-12T23:34:00.145Z,4.70
2023-03-12T23:40:02.056Z,5.20
2023-03-12T23:46:05.731Z,5.05
2023-03-12T23:52:07.528Z,5.10
2023-03-12T23:58:09.555Z,5.63
